Time;durP1;ratioP1;P1;durP2;ratioP2;P2;SDS_P1;SDS_P2;PMS_P1;PMS_P2;Temp;Humidity;BMP_temperature;BMP_pressure;BME280_temperature;BME280_humidity;BME280_pressure;Samples;Min_cycle;Max_cycle;Signal;HPM_P1;HPM_P2
2023/03/26 00:00:25;;;;;;;2.20;1.02;;;;;;;8.77;100.00;99507.94;5201846;28;20241;-72
2023/03/26 00:02:55;;;;;;;3.35;1.40;;;;;;;8.82;100.00;99502.50;5205854;28;20517;-73
2023/03/26 00:05:26;;;;;;;3.10;1.13;;;;;;;8.75;100.00;99509.75;5211510;28;20068;-72
2023/03/26 00:07:57;;;;;;;4.18;1.42;;;;;;;8.70;100.00;99511.72;5208950;28;20028;-72
2023/03/26 00:10:27;;;;;;;3.88;1.30;;;;;;;8.83;100.00;99512.88;5205386;28;20458;-72
2023/03/26 00:12:58;;;;;;;4.00;1.10;;;;;;;8.78;100.00;99514.84;5200241;28;20108;-73
2023/03/26 00:15:28;;;;;;;2.83;1.20;;;;;;;8.77;100.00;99518.38;5203150;28;20082;-72
2023/03/26 00:17:59;;;;;;;4.40;1.15;;;;;;;8.77;100.00;99517.50;5222193;23;20041;-77
2023/03/26 00:20:33;;;;;;;3.40;1.40;;;;;;;8.79;100.00;99526.97;5227546;28;20417;-77
2023/03/26 00:23:03;;;;;;;5.15;1.45;;;;;;;8.83;100.00;99532.84;5210491;28;20120;-78
2023/03/26 00:25:38;;;;;;;4.80;2.05;;;;;;;8.88;100.00;99528.31;5223684;28;20128;-77
2023/03/26 00:28:08;;;;;;;2.47;1.20;;;;;;;8.86;100.00;99528.34;5220284;28;20382;-78
2023/03/26 00:30:40;;;;;;;5.00;1.40;;;;;;;8.75;100.00;99534.97;5210975;28;20108;-74
2023/03/26 00:33:10;;;;;;;3.58;1.20;;;;;;;8.83;100.00;99538.91;5204718;28;20116;-71
2023/03/26 00:35:42;;;;;;;9.48;1.98;;;;;;;8.81;100.00;99535.53;5203074;28;20163;-75
2023/03/26 00:38:13;;;;;;;3.08;1.63;;;;;;;8.86;100.00;99536.16;5220605;28;20033;-75
2023/03/26 00:40:46;;;;;;;4.22;1.48;;;;;;;8.85;100.00;99531.88;5208249;28;20033;-75
2023/03/26 00:43:19;;;;;;;5.20;1.80;;;;;;;8.77;100.00;99539.22;5208539;28;20090;-72
2023/03/26 00:45:52;;;;;;;6.30;1.80;;;;;;;8.87;100.00;99534.44;5224326;28;20121;-75
2023/03/26 00:48:23;;;;;;;4.32;1.60;;;;;;;8.97;100.00;99526.13;5219861;28;20078;-75
2023/03/26 00:50:54;;;;;;;3.05;1.58;;;;;;;9.01;100.00;99522.44;5205069;28;20335;-74
2023/03/26 00:53:24;;;;;;;3.80;1.60;;;;;;;8.89;100.00;99522.16;5202238;28;20074;-74
2023/03/26 00:55:59;;;;;;;7.05;1.83;;;;;;;8.89;100.00;99520.41;5200917;28;20137;-75
2023/03/26 00:58:29;;;;;;;8.35;1.95;;;;;;;8.94;100.00;99521.06;5202190;28;20039;-75
2023/03/26 01:01:03;;;;;;;6.72;1.73;;;;;;;9.05;100.00;99523.16;5197382;28;20033;-75
2023/03/26 01:03:37;;;;;;;6.53;1.90;;;;;;;8.91;100.00;99526.38;5201636;28;20025;-75
2023/03/26 01:06:11;;;;;;;4.82;1.85;;;;;;;8.84;100.00;99535.41;5183730;28;20091;-76
2023/03/26 01:08:49;;;;;;;5.45;2.33;;;;;;;8.85;100.00;99541.44;5194660;28;20307;-75
2023/03/26 01:11:30;;;;;;;9.15;2.00;;;;;;;8.78;100.00;99540.91;5212922;28;20030;-76
2023/03/26 01:14:08;;;;;;;6.28;2.13;;;;;;;8.86;100.00;99537.94;5221889;28;20031;-76
2023/03/26 01:16:44;;;;;;;7.10;2.45;;;;;;;8.76;100.00;99540.09;5188232;28;20057;-75
2023/03/26 01:19:41;;;;;;;9.77;2.60;;;;;;;8.74;100.00;99539.31;5210596;28;20071;-76
2023/03/26 01:22:16;;;;;;;5.43;1.83;;;;;;;8.65;100.00;99541.50;5202360;28;20605;-75
2023/03/26 01:24:51;;;;;;;5.07;1.98;;;;;;;8.67;100.00;99537.91;5216462;28;20029;-74
2023/03/26 01:27:39;;;;;;;4.75;2.30;;;;;;;8.66;100.00;99541.44;5205278;28;20110;-76
2023/03/26 01:30:18;;;;;;;5.28;2.35;;;;;;;8.63;100.00;99556.34;5200120;28;20367;-75
2023/03/26 01:33:00;;;;;;;7.20;2.50;;;;;;;8.55;100.00;99564.47;5220430;28;20025;-75
2023/03/26 01:35:51;;;;;;;6.25;2.25;;;;;;;8.48;100.00;99560.47;5201225;28;20095;-75
2023/03/26 01:38:24;;;;;;;6.28;2.55;;;;;;;8.43;100.00;99554.63;5212944;28;20033;-75
2023/03/26 01:41:16;;;;;;;3.72;1.98;;;;;;;8.47;100.00;99558.78;5214143;28;20098;-75
2023/03/26 01:43:58;;;;;;;5.35;2.25;;;;;;;8.35;100.00;99559.28;5206456;28;20432;-76
2023/03/26 01:46:35;;;;;;;5.63;2.40;;;;;;;8.40;100.00;99553.91;5220954;28;20035;-75
2023/03/26 01:49:11;;;;;;;6.60;2.10;;;;;;;8.40;100.00;99553.91;5188584;28;20024;-76
2023/03/26 01:51:42;;;;;;;5.22;2.22;;;;;;;8.42;100.00;99554.69;5195799;28;20026;-76
2023/03/26 01:54:17;;;;;;;5.60;1.88;;;;;;;8.39;100.00;99552.22;5204044;28;20059;-76
2023/03/26 01:56:57;;;;;;;7.90;2.08;;;;;;;8.44;100.00;99545.91;5206423;28;20065;-74
2023/03/26 01:59:50;;;;;;;6.55;2.47;;;;;;;8.38;100.00;99551.34;5181733;28;20048;-75
2023/03/26 02:02:26;;;;;;;6.95;2.33;;;;;;;8.34;100.00;99551.53;5192956;28;20068;-76
2023/03/26 02:05:09;;;;;;;4.90;2.40;;;;;;;8.38;100.00;99555.72;5200149;28;20025;-75
2023/03/26 02:07:57;;;;;;;8.23;2.67;;;;;;;8.44;100.00;99545.03;5209954;28;20110;-75
2023/03/26 02:10:56;;;;;;;6.22;2.38;;;;;;;8.41;100.00;99551.22;5212692;28;20083;-75
2023/03/26 02:13:26;;;;;;;9.45;2.47;;;;;;;8.37;100.00;99548.84;5205777;28;20052;-75
2023/03/26 02:16:02;;;;;;;7.18;2.15;;;;;;;8.36;100.00;99547.16;5200636;28;20025;-75
2023/03/26 02:18:35;;;;;;;7.63;1.98;;;;;;;8.32;100.00;99548.16;5201456;28;20052;-75
2023/03/26 02:21:18;;;;;;;7.78;1.95;;;;;;;8.30;100.00;99542.19;5213741;28;20033;-76
2023/03/26 02:23:56;;;;;;;12.68;2.42;;;;;;;8.27;100.00;99539.72;5212481;28;20022;-74
2023/03/26 02:26:29;;;;;;;6.82;1.95;;;;;;;8.27;100.00;99542.31;5222180;28;20025;-77
2023/03/26 02:29:00;;;;;;;5.72;1.83;;;;;;;8.20;100.00;99546.09;5221666;28;20035;-76
2023/03/26 02:31:31;;;;;;;5.90;1.77;;;;;;;8.23;100.00;99540.75;5206235;28;20398;-76
2023/03/26 02:34:01;;;;;;;5.80;1.45;;;;;;;8.15;100.00;99537.59;5204781;28;20024;-76
2023/03/26 02:36:31;;;;;;;4.75;1.48;;;;;;;8.12;100.00;99535.97;5213811;28;20029;-76
2023/03/26 02:39:02;;;;;;;3.90;1.20;;;;;;;8.09;100.00;99543.91;5210872;28;20267;-76
2023/03/26 02:41:33;;;;;;;7.22;1.63;;;;;;;8.18;100.00;99546.16;5200539;28;20187;-76
2023/03/26 02:44:04;;;;;;;3.08;1.30;;;;;;;8.09;100.00;99546.53;5221297;28;20024;-77
2023/03/26 02:46:34;;;;;;;7.32;2.65;;;;;;;8.14;100.00;99546.31;5177683;28;20088;-77
2023/03/26 02:49:05;;;;;;;3.50;1.52;;;;;;;8.12;100.00;99548.13;5207362;28;20024;-76
2023/03/26 02:51:36;;;;;;;4.05;1.38;;;;;;;8.15;100.00;99545.41;5211532;28;20031;-76
2023/03/26 02:54:06;;;;;;;6.25;1.40;;;;;;;8.10;100.00;99552.56;5205969;28;20034;-76
2023/03/26 02:56:37;;;;;;;3.33;1.30;;;;;;;8.07;100.00;99548.31;5209023;28;20099;-76
2023/03/26 02:59:07;;;;;;;4.32;1.15;;;;;;;8.01;100.00;99556.38;5212888;28;20045;-76
2023/03/26 03:01:41;;;;;;;5.15;1.27;;;;;;;8.11;100.00;99560.31;5217659;28;20033;-76
2023/03/26 03:04:12;;;;;;;5.03;1.38;;;;;;;8.10;100.00;99548.22;5217521;28;20016;-76
2023/03/26 03:06:46;;;;;;;3.50;1.10;;;;;;;8.18;100.00;99545.31;5194226;28;20434;-76
2023/03/26 03:09:17;;;;;;;4.10;1.58;;;;;;;8.14;100.00;99541.97;5206766;28;20475;-76
2023/03/26 03:11:48;;;;;;;4.00;1.25;;;;;;;8.05;100.00;99544.94;5205302;28;20029;-76
2023/03/26 03:14:18;;;;;;;1.65;0.80;;;;;;;8.02;100.00;99534.66;5203826;28;20032;-76
2023/03/26 03:16:48;;;;;;;5.03;1.20;;;;;;;8.06;100.00;99546.63;5207635;28;20030;-73
2023/03/26 03:19:19;;;;;;;5.22;1.17;;;;;;;8.06;100.00;99544.03;5215151;28;20025;-74
2023/03/26 03:21:49;;;;;;;5.10;1.40;;;;;;;8.10;100.00;99539.53;5225722;28;20060;-72
2023/03/26 03:24:19;;;;;;;2.35;0.98;;;;;;;8.06;100.00;99544.03;5203289;28;20021;-74
2023/03/26 03:26:53;;;;;;;3.13;1.25;;;;;;;8.05;100.00;99552.75;5209940;28;20417;-75
2023/03/26 03:29:24;;;;;;;7.03;1.40;;;;;;;8.04;100.00;99545.84;5208551;28;20053;-76
2023/03/26 03:31:54;;;;;;;2.83;1.20;;;;;;;8.08;100.00;99552.59;5204112;28;20053;-76
2023/03/26 03:34:25;;;;;;;4.40;1.23;;;;;;;8.11;100.00;99546.44;5207652;28;20044;-76
2023/03/26 03:36:55;;;;;;;4.43;1.20;;;;;;;8.12;100.00;99546.38;5206052;28;20060;-75
2023/03/26 03:39:25;;;;;;;4.90;1.10;;;;;;;8.14;100.00;99541.97;5210127;28;20148;-76
2023/03/26 03:41:55;;;;;;;2.58;0.90;;;;;;;8.14;100.00;99543.69;5205389;28;20445;-76
2023/03/26 03:44:26;;;;;;;4.38;0.85;;;;;;;8.06;100.00;99545.78;5208257;28;20116;-76
2023/03/26 03:46:56;;;;;;;3.72;1.25;;;;;;;8.22;100.00;99559.88;5204313;28;20509;-75
2023/03/26 03:49:27;;;;;;;3.85;0.98;;;;;;;8.24;100.00;99552.84;5208806;28;20044;-72
2023/03/26 03:51:57;;;;;;;3.03;1.05;;;;;;;8.24;100.00;99551.09;5217822;28;20112;-76
2023/03/26 03:54:28;;;;;;;2.53;0.90;;;;;;;8.18;100.00;99555.72;5203885;28;20465;-76
2023/03/26 03:56:58;;;;;;;3.33;0.85;;;;;;;8.10;100.00;99562.97;5207425;28;20112;-77
2023/03/26 03:59:29;;;;;;;2.88;0.95;;;;;;;8.07;100.00;99561.31;5207904;28;20339;-77
2023/03/26 04:01:59;;;;;;;2.47;1.33;;;;;;;8.02;100.00;99560.69;5219059;28;20029;-76
2023/03/26 04:04:31;;;;;;;4.28;0.90;;;;;;;8.03;100.00;99557.16;5212370;28;20029;-76
2023/03/26 04:07:02;;;;;;;3.40;0.93;;;;;;;8.03;100.00;99551.97;5209123;28;20052;-76
2023/03/26 04:09:32;;;;;;;4.75;0.95;;;;;;;8.05;100.00;99559.72;5187684;28;20530;-75
2023/03/26 04:12:02;;;;;;;2.42;0.80;;;;;;;8.05;100.00;99557.94;5184043;28;20014;-76
2023/03/26 04:14:33;;;;;;;4.60;1.10;;;;;;;8.06;100.00;99551.84;5206734;28;20064;-77
2023/03/26 04:17:04;;;;;;;6.43;0.93;;;;;;;8.09;100.00;99554.34;5203573;28;20436;-76
2023/03/26 04:19:34;;;;;;;3.60;0.82;;;;;;;8.06;100.00;99556.22;5205464;28;20030;-75
2023/03/26 04:22:05;;;;;;;3.63;0.80;;;;;;;8.06;100.00;99556.22;5224345;28;20032;-76
2023/03/26 04:24:38;;;;;;;6.60;0.93;;;;;;;8.08;100.00;99547.41;5214532;28;20585;-76
2023/03/26 04:27:14;;;;;;;3.40;0.80;;;;;;;8.14;100.00;99541.97;5206739;28;20443;-76
2023/03/26 04:29:48;;;;;;;4.30;1.08;;;;;;;8.13;100.00;99545.47;5222262;28;20044;-77
2023/03/26 04:32:33;;;;;;;4.13;0.90;;;;;;;8.26;100.00;99536.28;5197662;28;20026;-76
2023/03/26 04:35:04;;;;;;;6.22;1.10;;;;;;;8.21;100.00;99546.03;5205295;28;20093;-76
2023/03/26 04:37:40;;;;;;;5.35;1.27;;;;;;;8.09;100.00;99538.72;5201715;28;20184;-76
2023/03/26 04:40:15;;;;;;;5.22;1.10;;;;;;;8.17;100.00;99547.03;5202306;28;20021;-76
2023/03/26 04:42:45;;;;;;;3.37;1.30;;;;;;;8.09;100.00;99554.34;5210401;28;20033;-76
2023/03/26 04:45:21;;;;;;;4.75;1.30;;;;;;;8.21;100.00;99543.41;5205744;28;20037;-76
2023/03/26 04:47:51;;;;;;;3.88;1.08;;;;;;;8.14;100.00;99536.75;5206138;28;20402;-75
2023/03/26 04:50:21;;;;;;;9.50;1.45;;;;;;;8.20;100.00;99531.31;5205475;28;20029;-76
2023/03/26 04:52:55;;;;;;;5.18;1.30;;;;;;;8.21;100.00;99542.59;5203034;28;20501;-75
2023/03/26 04:55:40;;;;;;;4.32;1.33;;;;;;;8.14;100.00;99538.50;5190529;28;20038;-76
2023/03/26 04:58:12;;;;;;;4.38;1.10;;;;;;;8.15;100.00;99540.19;5209243;28;20025;-76
2023/03/26 05:00:43;;;;;;;4.57;1.30;;;;;;;8.17;100.00;99531.41;5209843;28;20029;-76
2023/03/26 05:03:14;;;;;;;4.82;1.25;;;;;;;8.10;100.00;99539.53;5210898;28;20437;-75
2023/03/26 05:05:44;;;;;;;4.43;1.55;;;;;;;8.17;100.00;99531.41;5204947;28;20032;-74
2023/03/26 05:08:15;;;;;;;6.70;1.20;;;;;;;8.22;100.00;99529.50;5204978;28;20025;-76
2023/03/26 05:10:45;;;;;;;4.22;1.15;;;;;;;8.11;100.00;99525.63;5205483;28;20032;-75
2023/03/26 05:13:15;;;;;;;2.38;0.88;;;;;;;8.07;100.00;99534.47;5211437;28;20025;-76
2023/03/26 05:15:46;;;;;;;2.25;1.10;;;;;;;8.04;100.00;99532.84;5205072;28;20087;-75
2023/03/26 05:18:16;;;;;;;4.43;1.38;;;;;;;8.01;100.00;99534.75;5204012;28;20029;-75
2023/03/26 05:20:46;;;;;;;6.53;1.63;;;;;;;8.00;100.00;99533.88;5199187;28;20553;-76
2023/03/26 05:23:17;;;;;;;7.80;3.17;;;;;;;7.95;100.00;99533.25;5205635;28;20116;-76
2023/03/26 05:25:47;;;;;;;5.10;1.48;;;;;;;7.90;100.00;99535.16;5206380;28;20044;-76
2023/03/26 05:28:19;;;;;;;5.80;1.38;;;;;;;8.07;100.00;99530.09;5203678;28;20513;-76
2023/03/26 05:30:51;;;;;;;2.97;1.20;;;;;;;8.06;100.00;99533.63;5217730;28;20044;-76
2023/03/26 05:33:22;;;;;;;3.70;1.20;;;;;;;8.04;100.00;99532.84;5217687;28;20407;-75
2023/03/26 05:36:04;;;;;;;4.53;1.20;;;;;;;8.10;100.00;99530.00;5210544;28;20037;-76
2023/03/26 05:38:35;;;;;;;3.38;1.30;;;;;;;7.98;100.00;99533.09;5201730;28;20514;-76
2023/03/26 05:41:08;;;;;;;5.70;1.73;;;;;;;7.92;100.00;99525.56;5202874;28;20038;-77
2023/03/26 05:43:38;;;;;;;5.28;1.20;;;;;;;7.95;100.00;99525.44;5200845;28;20025;-75
2023/03/26 05:46:08;;;;;;;6.13;1.30;;;;;;;7.98;100.00;99519.25;5212072;28;20407;-76
2023/03/26 05:48:39;;;;;;;2.30;1.42;;;;;;;8.08;100.00;99529.19;5218673;28;20033;-76
2023/03/26 05:51:11;;;;;;;5.75;1.35;;;;;;;7.97;100.00;99522.75;5185386;28;20044;-76
2023/03/26 05:53:41;;;;;;;4.40;1.30;;;;;;;8.17;100.00;99510.59;5197663;28;20025;-76
2023/03/26 05:56:11;;;;;;;3.22;1.40;;;;;;;8.27;100.00;99516.28;5211403;28;20079;-75
2023/03/26 05:58:42;;;;;;;3.67;1.58;;;;;;;8.39;100.00;99510.56;5209093;28;20027;-76
2023/03/26 06:01:16;;;;;;;4.10;0.85;;;;;;;8.38;100.00;99507.09;5222859;28;20021;-76
2023/03/26 06:03:48;;;;;;;;;;;;;;;8.33;100.00;99503.84;5215479;28;20085;-76
2023/03/26 06:06:19;;;;;;;3.92;1.20;;;;;;;8.49;100.00;99502.28;5209341;28;20289;-76
2023/03/26 06:08:51;;;;;;;5.38;1.40;;;;;;;8.60;100.00;99502.66;5198911;28;20037;-77
2023/03/26 06:11:21;;;;;;;3.42;0.98;;;;;;;8.67;100.00;99504.06;5210059;28;20036;-73
2023/03/26 06:13:51;;;;;;;6.30;1.40;;;;;;;8.73;100.00;99498.56;5214033;28;20037;-72
2023/03/26 06:16:22;;;;;;;4.38;1.10;;;;;;;8.80;100.00;99497.38;5192142;28;20083;-74
2023/03/26 06:18:53;;;;;;;3.97;1.00;;;;;;;8.84;100.00;99493.72;5227397;23;20414;-69
2023/03/26 06:21:24;;;;;;;2.03;0.95;;;;;;;8.86;100.00;99493.66;5223099;28;20193;-70
2023/03/26 06:23:55;;;;;;;2.63;0.98;;;;;;;8.91;100.00;99489.06;5211872;28;20063;-69
2023/03/26 06:26:25;;;;;;;4.70;0.90;;;;;;;9.04;100.00;99488.44;5223561;28;20033;-72
2023/03/26 06:28:55;;;;;;;3.55;1.20;;;;;;;8.92;100.00;99488.97;5230280;28;20035;-72
2023/03/26 06:31:26;;;;;;;4.30;1.30;;;;;;;9.00;100.00;99494.72;5227489;28;20031;-69
2023/03/26 06:33:56;;;;;;;6.10;1.30;;;;;;;9.13;100.00;99493.22;5227638;28;20082;-69
2023/03/26 06:36:26;;;;;;;4.72;1.25;;;;;;;9.16;100.00;99490.47;5223156;28;20036;-69
2023/03/26 06:38:56;;;;;;;6.43;1.73;;;;;;;9.21;100.00;99491.09;5228180;28;20482;-68
2023/03/26 06:41:27;;;;;;;4.30;1.73;;;;;;;9.14;100.00;99489.69;5228292;28;20060;-71
2023/03/26 06:43:57;;;;;;;5.03;1.83;;;;;;;9.22;100.00;99492.78;5224333;28;20020;-71
2023/03/26 06:46:29;;;;;;;5.15;1.80;;;;;;;9.20;100.00;99486.78;5225856;28;20528;-71
2023/03/26 06:48:59;;;;;;;5.22;1.60;;;;;;;8.97;100.00;99494.84;5221772;28;20052;-72
2023/03/26 06:51:29;;;;;;;7.43;1.50;;;;;;;9.36;100.00;99488.63;5224191;28;20132;-72
2023/03/26 06:54:00;;;;;;;5.43;1.42;;;;;;;9.44;100.00;99485.59;5225225;28;20021;-72
2023/03/26 06:56:30;;;;;;;8.15;1.90;;;;;;;9.39;100.00;99492.81;5228448;28;20037;-72
2023/03/26 06:59:00;;;;;;;3.92;1.80;;;;;;;9.35;100.00;99497.31;5227843;28;20033;-71
2023/03/26 07:01:31;;;;;;;4.18;1.70;;;;;;;9.53;100.00;99491.25;5224677;28;20039;-71
2023/03/26 07:04:01;;;;;;;5.90;1.88;;;;;;;9.42;100.00;99488.31;5222112;28;20037;-71
2023/03/26 07:06:31;;;;;;;2.97;1.52;;;;;;;9.55;100.00;99496.38;5225789;28;20494;-72
2023/03/26 07:09:02;;;;;;;6.93;1.75;;;;;;;9.46;99.37;99494.22;5222385;28;20420;-71
2023/03/26 07:11:34;;;;;;;4.50;1.50;;;;;;;9.38;100.00;99486.78;5201767;28;20112;-72
2023/03/26 07:14:04;;;;;;;4.13;1.65;;;;;;;9.30;100.00;99483.66;5214515;28;20021;-71
2023/03/26 07:16:34;;;;;;;6.25;1.38;;;;;;;9.46;99.95;99483.78;5220143;28;20024;-71
2023/03/26 07:19:04;;;;;;;8.25;1.60;;;;;;;9.45;98.65;99482.94;5216410;28;20060;-71
2023/03/26 07:21:35;;;;;;;7.10;1.42;;;;;;;9.42;98.83;99484.84;5226225;28;20032;-72
2023/03/26 07:24:09;;;;;;;4.60;1.10;;;;;;;9.43;99.45;99476.09;5222962;28;20039;-71
2023/03/26 07:26:58;;;;;;;4.38;1.10;;;;;;;9.47;97.37;99470.66;5224641;28;20035;-71
2023/03/26 07:29:44;;;;;;;4.85;1.40;;;;;;;9.57;97.55;99473.66;5219742;28;20033;-71
2023/03/26 07:32:27;;;;;;;3.20;0.90;;;;;;;9.79;96.85;99469.09;5224251;28;20024;-72
2023/03/26 07:35:29;;;;;;;3.33;1.10;;;;;;;9.63;95.40;99474.22;5220874;28;20623;-72
2023/03/26 07:38:18;;;;;;;3.97;1.00;;;;;;;9.73;96.02;99469.38;5223889;28;20459;-71
2023/03/26 07:40:54;;;;;;;3.00;1.20;;;;;;;9.77;96.09;99463.09;5224487;28;20112;-70
2023/03/26 07:43:28;;;;;;;3.00;1.20;;;;;;;9.66;95.29;99457.59;5229842;28;20042;-71
2023/03/26 07:45:58;;;;;;;4.35;1.20;;;;;;;9.71;95.82;99463.41;5226919;28;20627;-71
2023/03/26 07:48:39;;;;;;;2.83;1.10;;;;;;;9.77;95.17;99468.31;5224608;28;20454;-72
2023/03/26 07:51:10;;;;;;;6.18;1.30;;;;;;;9.94;95.06;99460.47;5229828;28;20025;-71
2023/03/26 07:53:41;;;;;;;5.15;1.20;;;;;;;10.14;94.88;99457.75;5229895;28;20032;-72
2023/03/26 07:56:59;;;;;;;6.95;1.20;;;;;;;10.19;92.51;99458.34;5209081;28;20044;-71
2023/03/26 07:59:55;;;;;;;4.97;0.90;;;;;;;9.98;93.94;99462.84;5216561;28;20048;-71
2023/03/26 08:02:33;;;;;;;4.68;1.00;;;;;;;10.11;95.11;99452.66;5232159;28;20032;-71
2023/03/26 08:05:17;;;;;;;3.92;1.38;;;;;;;10.06;92.23;99455.53;5225053;28;20525;-72
2023/03/26 08:07:59;;;;;;;3.65;1.10;;;;;;;10.04;92.34;99451.31;5223107;28;20232;-72
2023/03/26 08:10:48;;;;;;;4.10;0.90;;;;;;;9.97;93.63;99445.50;5228418;28;20072;-71
2023/03/26 08:13:42;;;;;;;3.88;1.25;;;;;;;10.15;93.96;99459.44;5225061;28;20028;-72
2023/03/26 08:16:22;;;;;;;3.88;1.23;;;;;;;9.95;94.98;99452.56;5227360;28;20017;-71
2023/03/26 08:19:15;;;;;;;4.25;1.20;;;;;;;10.06;93.69;99450.31;5230528;28;20074;-72
2023/03/26 08:21:54;;;;;;;4.65;1.33;;;;;;;10.05;92.73;99447.75;5211611;28;20179;-70
2023/03/26 08:24:53;;;;;;;2.72;1.05;;;;;;;9.97;92.67;99460.34;5210073;28;20036;-71
2023/03/26 08:28:09;;;;;;;3.20;1.33;;;;;;;10.04;94.69;99452.16;5203239;28;20032;-71
2023/03/26 08:30:40;;;;;;;2.65;1.23;;;;;;;9.84;96.01;99449.66;5185668;28;20060;-71
2023/03/26 08:33:16;;;;;;;4.00;1.40;;;;;;;10.14;95.51;99450.75;5225554;28;20208;-71
2023/03/26 08:35:48;;;;;;;5.43;1.77;;;;;;;9.99;95.37;99448.06;5214427;28;20363;-72
2023/03/26 08:38:20;;;;;;;10.40;1.98;;;;;;;10.13;92.39;99450.84;5222605;28;20039;-71
2023/03/26 08:41:08;;;;;;;3.90;1.50;;;;;;;10.34;94.23;99444.50;5223249;28;20032;-71
2023/03/26 08:43:44;;;;;;;4.35;1.02;;;;;;;10.24;93.90;99445.88;5231220;28;20118;-72
2023/03/26 08:46:47;;;;;;;8.57;1.75;;;;;;;10.46;94.19;99443.81;5227956;28;20037;-72
2023/03/26 08:49:26;;;;;;;5.55;1.10;;;;;;;10.48;95.01;99442.00;5210810;28;20218;-72
2023/03/26 08:52:41;;;;;;;4.47;1.00;;;;;;;10.41;94.46;99446.69;5223004;28;20098;-72
2023/03/26 08:55:35;;;;;;;3.38;1.10;;;;;;;10.68;91.84;99447.00;5204688;28;20539;-71
2023/03/26 08:58:21;;;;;;;4.07;1.10;;;;;;;10.98;89.90;99442.69;5221685;28;20048;-71
2023/03/26 09:01:11;;;;;;;5.75;1.00;;;;;;;11.15;90.01;99449.53;5222176;28;20064;-72
2023/03/26 09:04:02;;;;;;;9.90;1.55;;;;;;;11.20;88.31;99444.91;5222062;28;20418;-71
2023/03/26 09:07:15;;;;;;;6.45;2.75;;;;;;;11.32;85.95;99441.59;5227148;28;20055;-71
2023/03/26 09:10:04;;;;;;;7.82;2.08;;;;;;;11.78;84.56;99432.78;5211073;28;20055;-72
2023/03/26 09:12:43;;;;;;;4.05;1.30;;;;;;;11.72;84.03;99433.16;5221608;28;20395;-72
2023/03/26 09:15:51;;;;;;;5.85;1.70;;;;;;;11.81;85.06;99437.84;5221778;28;20044;-72
2023/03/26 09:18:46;;;;;;;4.88;1.73;;;;;;;11.91;84.79;99440.75;5216601;28;20064;-72
2023/03/26 09:21:42;;;;;;;4.13;1.00;;;;;;;12.13;82.98;99436.78;5220929;28;20024;-71
2023/03/26 09:24:24;;;;;;;14.73;5.10;;;;;;;12.57;82.25;99434.94;5219584;28;20045;-72
2023/03/26 09:27:22;;;;;;;6.95;2.70;;;;;;;12.53;80.60;99433.44;5220252;28;20037;-72
2023/03/26 09:30:14;;;;;;;5.18;1.35;;;;;;;13.07;80.24;99425.59;5214859;28;20174;-72
2023/03/26 09:33:22;;;;;;;4.78;0.90;;;;;;;13.22;79.41;99419.38;5204099;28;20244;-70
2023/03/26 09:36:07;;;;;;;3.42;1.17;;;;;;;13.28;77.56;99423.38;5211009;28;20387;-70
2023/03/26 09:38:41;;;;;;;4.07;1.30;;;;;;;13.51;76.54;99415.69;5203659;28;20374;-71
2023/03/26 09:41:15;;;;;;;4.28;1.10;;;;;;;13.66;74.74;99419.94;5218212;28;20072;-72
2023/03/26 09:43:57;;;;;;;4.07;1.30;;;;;;;13.75;75.23;99418.50;5212514;28;20029;-71
2023/03/26 09:46:36;;;;;;;4.38;1.20;;;;;;;14.00;77.79;99413.25;5218054;28;20505;-71
2023/03/26 09:49:48;;;;;;;2.63;1.00;;;;;;;14.23;75.02;99412.56;5196099;28;20569;-71
2023/03/26 09:52:49;;;;;;;3.22;1.10;;;;;;;13.55;77.53;99421.59;5209509;28;20405;-72
2023/03/26 09:55:56;;;;;;;7.07;1.13;;;;;;;13.67;74.84;99416.38;5218047;28;20103;-71
2023/03/26 09:58:42;;;;;;;6.93;1.50;;;;;;;12.95;76.55;99416.84;5220396;28;20078;-71
2023/03/26 10:01:41;;;;;;;3.80;1.77;;;;;;;13.14;77.39;99420.81;5218194;28;20041;-72
2023/03/26 10:04:32;;;;;;;6.38;1.27;;;;;;;12.90;76.95;99412.69;5217081;28;20498;-72
2023/03/26 10:07:40;;;;;;;4.03;1.50;;;;;;;12.94;78.92;99405.50;5213196;28;20043;-71
2023/03/26 10:10:17;;;;;;;3.97;1.73;;;;;;;12.89;78.62;99397.88;5123120;28;20117;-72
2023/03/26 10:12:56;;;;;;;6.90;2.30;;;;;;;13.12;77.71;99399.06;5218496;28;20017;-71
2023/03/26 10:15:35;;;;;;;5.82;2.67;;;;;;;12.79;77.05;99392.50;5218456;28;20080;-70
2023/03/26 10:18:20;;;;;;;6.55;2.92;;;;;;;12.54;78.15;99397.59;5220113;28;20397;-70
2023/03/26 10:21:04;;;;;;;3.83;1.83;;;;;;;12.72;79.88;99394.66;5218587;28;20127;-71
2023/03/26 10:24:12;;;;;;;7.97;3.65;;;;;;;13.00;78.34;99379.72;5219781;28;20334;-72
2023/03/26 10:27:07;;;;;;;7.30;2.90;;;;;;;13.05;75.89;99382.06;5176195;28;20041;-71
2023/03/26 10:29:57;;;;;;;3.72;1.80;;;;;;;12.75;77.40;99373.50;5221830;28;20020;-71
2023/03/26 10:32:45;;;;;;;5.85;2.78;;;;;;;12.87;78.38;99370.09;5220392;28;20434;-72
2023/03/26 10:35:30;;;;;;;13.90;5.80;;;;;;;12.99;79.25;99375.44;5216764;28;20020;-71
2023/03/26 10:38:39;;;;;;;10.10;4.97;;;;;;;12.82;78.95;99372.16;5220871;28;20059;-72
2023/03/26 10:41:25;;;;;;;2.58;1.30;;;;;;;12.88;78.97;99369.16;5218725;28;20869;-71
2023/03/26 10:44:24;;;;;;;4.88;1.60;;;;;;;12.88;77.43;99369.16;5223562;28;20039;-70
2023/03/26 10:47:17;;;;;;;6.00;1.58;;;;;;;13.13;78.08;99362.28;5225555;28;20591;-72
2023/03/26 10:50:13;;;;;;;4.50;1.70;;;;;;;12.96;78.51;99368.72;5208886;28;20107;-72
2023/03/26 10:52:47;;;;;;;4.43;1.60;;;;;;;12.62;76.85;99364.72;5195692;28;20317;-72
2023/03/26 10:55:25;;;;;;;7.50;2.20;;;;;;;12.46;78.48;99376.28;5222134;28;20025;-72
2023/03/26 10:58:15;;;;;;;3.92;2.33;;;;;;;12.52;79.80;99374.13;5218707;28;20048;-71
2023/03/26 11:00:58;;;;;;;5.55;2.22;;;;;;;12.44;81.02;99380.78;5221550;28;20572;-71
2023/03/26 11:03:44;;;;;;;5.82;2.05;;;;;;;12.34;79.97;99362.16;5221257;28;20044;-72
2023/03/26 11:06:42;;;;;;;9.70;4.38;;;;;;;12.34;80.99;99370.03;5215597;28;20031;-71
2023/03/26 11:09:47;;;;;;;6.65;2.75;;;;;;;12.31;80.27;99358.88;5221254;28;20021;-72
2023/03/26 11:12:43;;;;;;;5.78;2.00;;;;;;;12.46;81.21;99363.16;5219042;28;20422;-71
2023/03/26 11:15:46;;;;;;;4.22;1.60;;;;;;;12.26;81.51;99367.00;5225814;28;20679;-72
2023/03/26 11:18:19;;;;;;;5.50;1.67;;;;;;;12.27;81.48;99362.63;5225539;28;20037;-72
2023/03/26 11:21:14;;;;;;;3.78;1.60;;;;;;;12.08;82.69;99367.28;5227311;28;20039;-72
2023/03/26 11:23:47;;;;;;;7.85;2.45;;;;;;;12.25;83.85;99374.94;5224786;28;20040;-72
2023/03/26 11:26:29;;;;;;;10.15;4.35;;;;;;;12.22;80.65;99369.91;5224436;28;20052;-72
2023/03/26 11:29:23;;;;;;;6.20;2.42;;;;;;;11.93;79.88;99371.69;5223244;28;20394;-71
2023/03/26 11:32:14;;;;;;;3.42;1.40;;;;;;;11.97;81.26;99360.06;5227490;28;20406;-71
2023/03/26 11:35:07;;;;;;;8.20;2.70;;;;;;;12.02;81.25;99360.66;5224131;28;20514;-71
2023/03/26 11:37:42;;;;;;;4.47;2.53;;;;;;;12.09;82.15;99361.13;5208562;28;20379;-72
2023/03/26 11:40:44;;;;;;;5.13;1.92;;;;;;;12.20;81.74;99356.91;5219108;28;20071;-72
2023/03/26 11:43:16;;;;;;;3.92;1.05;;;;;;;12.20;80.58;99350.81;5222637;28;20044;-71
2023/03/26 11:45:49;;;;;;;3.78;1.05;;;;;;;12.20;80.90;99350.81;5227261;28;20108;-72
2023/03/26 11:48:29;;;;;;;4.50;1.17;;;;;;;12.16;81.70;99354.59;5222452;28;20124;-72
2023/03/26 11:51:06;;;;;;;2.67;1.15;;;;;;;12.10;81.33;99357.59;5227456;28;20502;-71
2023/03/26 11:53:38;;;;;;;2.97;1.50;;;;;;;12.03;82.23;99354.50;5222335;28;20059;-72
2023/03/26 11:56:36;;;;;;;4.75;1.40;;;;;;;11.86;80.52;99357.28;5225415;28;20021;-70
2023/03/26 11:59:21;;;;;;;6.15;1.55;;;;;;;12.10;79.78;99353.16;5219539;28;20567;-71
2023/03/26 12:01:59;;;;;;;4.35;1.40;;;;;;;12.20;81.95;99351.69;5210394;28;20152;-71
2023/03/26 12:04:35;;;;;;;4.32;1.48;;;;;;;12.16;79.97;99352.78;5223988;28;20514;-71
2023/03/26 12:07:08;;;;;;;;;;;;;;;12.16;79.78;99357.19;5221216;28;20040;-70
2023/03/26 12:09:57;;;;;;;4.40;2.00;;;;;;;12.53;81.90;99349.59;5221388;28;19923;-72
2023/03/26 12:12:35;;;;;;;3.72;1.90;;;;;;;12.48;80.72;99342.94;5226237;28;20448;-71
2023/03/26 12:15:17;;;;;;;4.80;1.73;;;;;;;12.75;78.59;99341.19;5222764;28;20043;-71
2023/03/26 12:17:52;;;;;;;5.82;1.95;;;;;;;12.33;78.59;99343.91;5227822;28;20041;-71
2023/03/26 12:20:23;;;;;;;6.60;2.33;;;;;;;12.63;79.57;99345.44;5222269;23;20109;-74
2023/03/26 12:22:59;;;;;;;2.80;1.20;;;;;;;12.41;79.51;99347.72;5222803;28;20135;-73
2023/03/26 12:25:32;;;;;;;;;;;;;;;12.84;78.39;99344.06;5220996;28;20040;-73